Wylde Swan — PIWS — position and weather

sailwx.info

Track history (hours):
 
Tides and Currents Weather Stations Pressure Air Temp Water Temp Dewpoint Dewpoint Depression Visibility Wind Speed Wind Dir Waves Ship Positions

Wylde Swan

Last reported at 2017-Sep-22 01:58 UTC. Time now 2017-Sep-22 15:18 UTC.
Position N 53°22' E 005°13'.

Length 45 m; draft 3.4 m.

Type: Sailing vessel. MMSI: 244074000.

Date/timePositionNaut miles runAvg speedWind from/ knotsBaromVisibWave heightAir tempDewpointWater temp
2017-Sep-22 01:58N 53°22' E 005°13'0 0.0
2017-Sep-22 01:28N 53°22' E 005°13'0 0.0
2017-Sep-22 00:58N 53°22' E 005°13'0 0.0
2017-Sep-22 00:28N 53°22' E 005°13'0 0.0
2017-Sep-21 23:58N 53°22' E 005°13'0 0.0
2017-Sep-21 23:28N 53°22' E 005°13'0 0.0
2017-Sep-21 22:58N 53°22' E 005°13'0 0.0
2017-Sep-21 22:28N 53°22' E 005°13'0 0.0
2017-Sep-21 21:58N 53°22' E 005°13'0 0.0
2017-Sep-21 21:28N 53°22' E 005°13'0 0.0
2017-Sep-21 20:58N 53°22' E 005°13'0 0.0
2017-Sep-21 20:28N 53°22' E 005°13'0 0.0
2017-Sep-21 19:58N 53°22' E 005°13'0 0.0
2017-Sep-21 19:28N 53°22' E 005°13'0 0.0
2017-Sep-21 18:58N 53°22' E 005°13'0 0.0
2017-Sep-21 18:28N 53°22' E 005°13'0 0.0
2017-Sep-21 17:58N 53°22' E 005°13'0 0.0
2017-Sep-21 17:28N 53°22' E 005°13'0 0.0
2017-Sep-21 16:58N 53°22' E 005°13'0 0.0
2017-Sep-21 16:30N 53°22' E 005°13'0 0.0
2017-Sep-21 16:00N 53°22' E 005°13'0 0.0
2017-Sep-21 15:30N 53°22' E 005°13'0 0.0
2017-Sep-21 15:00N 53°22' E 005°13'0 0.0
2017-Sep-21 14:30N 53°22' E 005°13'0 0.0
2017-Sep-21 14:00N 53°22' E 005°13'0 0.0
2017-Sep-21 13:30N 53°22' E 005°13'0 0.0
2017-Sep-21 13:00N 53°22' E 005°13'0 0.0
2017-Sep-21 12:30N 53°22' E 005°13'1 1.6
2017-Sep-21 12:00N 53°21' E 005°13'3 5.4
2017-Sep-21 11:30N 53°19' E 005°15'3 6.1
2017-Sep-21 11:00N 53°17' E 005°11'3 6.8
2017-Sep-21 10:30N 53°14' E 005°13'4 7.4
2017-Sep-21 10:00N 53°12' E 005°18'4 7.7
2017-Sep-21 09:30N 53°11' E 005°24'3 6.1
2017-Sep-21 09:00N 53°08' E 005°23'3 5.7
2017-Sep-21 08:31N 53°05' E 005°21'1 2.0
2017-Sep-21 08:00N 53°04' E 005°20'0 0.4
2017-Sep-21 07:30N 53°04' E 005°20'2 3.3
2017-Sep-21 07:00N 53°03' E 005°23'1 1.6
2017-Sep-21 06:30N 53°03' E 005°24'0 0.0
2017-Sep-21 06:00N 53°03' E 005°24'0 0.0
2017-Sep-21 05:30N 53°03' E 005°24'0 0.0
2017-Sep-21 05:00N 53°03' E 005°24'0 0.0
2017-Sep-21 04:30N 53°03' E 005°24'0 0.0
2017-Sep-21 04:00N 53°03' E 005°24'0 0.0
2017-Sep-21 03:30N 53°03' E 005°24'0 0.0
2017-Sep-21 03:00N 53°03' E 005°24'0 0.0
2017-Sep-21 02:30N 53°03' E 005°24'0 0.0
2017-Sep-21 02:00N 53°03' E 005°24'0 0.0
2017-Sep-21 01:30N 53°03' E 005°24'0 0.0
2017-Sep-21 01:00N 53°03' E 005°24'0 0.0
2017-Sep-21 00:30N 53°03' E 005°24'0 0.0
2017-Sep-21 00:00N 53°03' E 005°24'0 0.0
2017-Sep-20 23:30N 53°03' E 005°24'0 0.0
2017-Sep-20 23:00N 53°03' E 005°24'0 0.0
2017-Sep-20 22:30N 53°03' E 005°24'0 0.0
2017-Sep-20 22:00N 53°03' E 005°24'0 0.0
2017-Sep-20 21:30N 53°03' E 005°24'0 0.0
2017-Sep-20 21:00N 53°03' E 005°24'0 0.0
2017-Sep-20 20:30N 53°03' E 005°24'0 0.0
2017-Sep-20 20:00N 53°03' E 005°24'0 0.0
2017-Sep-20 19:30N 53°03' E 005°24'0 0.0
2017-Sep-20 19:00N 53°03' E 005°24'0 0.0
2017-Sep-20 18:30N 53°03' E 005°24'0 0.0
2017-Sep-20 18:00N 53°03' E 005°24'0 0.0
2017-Sep-20 17:30N 53°03' E 005°24'0 0.0
2017-Sep-20 17:00N 53°03' E 005°24'1 1.8
2017-Sep-20 16:30N 53°03' E 005°23'2 3.1
2017-Sep-20 16:00N 53°02' E 005°21'3 6.7
2017-Sep-20 15:30N 52°59' E 005°19'4 7.8
2017-Sep-20 15:00N 52°55' E 005°20'8 8.3
2017-Sep-20 14:00N 52°47' E 005°19'4 8.5
2017-Sep-20 13:30N 52°44' E 005°24'4 8.6
2017-Sep-20 13:00N 52°41' E 005°30'4 7.4
2017-Sep-20 12:30N 52°38' E 005°32'4 7.8
2017-Sep-20 12:00N 52°35' E 005°29'4 7.4
2017-Sep-20 11:30N 52°32' E 005°26'0 0.7
2017-Sep-20 11:00N 52°31' E 005°26'0 0.0
2017-Sep-20 10:30N 52°31' E 005°26'0 0.0
2017-Sep-20 10:00N 52°31' E 005°26'0 0.0
2017-Sep-20 09:30N 52°31' E 005°26'0 0.0
2017-Sep-20 09:00N 52°31' E 005°26'0 0.0
2017-Sep-20 08:30N 52°31' E 005°26'1 2.9
2017-Sep-20 08:00N 52°30' E 005°24'2 4.7
2017-Sep-20 07:30N 52°30' E 005°20'3 6.9
2017-Sep-20 07:00N 52°28' E 005°16'3 6.4
2017-Sep-20 06:30N 52°26' E 005°11'3 6.5
2017-Sep-20 06:00N 52°24' E 005°07'3 6.9
2017-Sep-20 05:30N 52°23' E 005°02'3 5.5
2017-Sep-20 05:01N 52°23' E 004°58'0 0.8
2017-Sep-20 04:31N 52°23' E 004°57'2 4.8
2017-Sep-20 04:00N 52°24' E 004°53'0 0.3
2017-Sep-20 03:30N 52°24' E 004°53'0 0.0
2017-Sep-20 03:00N 52°24' E 004°53'0 0.0
2017-Sep-20 02:30N 52°24' E 004°53'0 0.0
2017-Sep-20 02:00N 52°24' E 004°53'0 0.0
2017-Sep-20 01:30N 52°24' E 004°53'0 0.0
2017-Sep-20 01:00N 52°24' E 004°53'0 0.0
2017-Sep-20 00:30N 52°24' E 004°53'0 0.0
2017-Sep-20 00:00N 52°24' E 004°53'0 0.0
2017-Sep-19 23:30N 52°24' E 004°53'0 0.0
2017-Sep-19 23:00N 52°24' E 004°53'0 0.0
2017-Sep-19 22:30N 52°24' E 004°53'0 0.0
2017-Sep-19 22:00N 52°24' E 004°53'0 0.0
2017-Sep-19 21:30N 52°24' E 004°53'0 0.0
2017-Sep-19 21:00N 52°24' E 004°53'0 0.0
2017-Sep-19 20:30N 52°24' E 004°53'0 0.0
2017-Sep-19 20:00N 52°24' E 004°53'0 0.0
2017-Sep-19 19:30N 52°24' E 004°53'0 0.0
2017-Sep-19 19:00N 52°24' E 004°53'0 0.0
2017-Sep-19 18:30N 52°24' E 004°53'0 0.0
2017-Sep-19 18:00N 52°24' E 004°53'0 0.0
2017-Sep-19 17:30N 52°24' E 004°53'0 0.0
2017-Sep-19 17:00N 52°24' E 004°53'0 0.0
2017-Sep-19 16:30N 52°24' E 004°53'0 0.0
2017-Sep-19 16:00N 52°24' E 004°53'0 0.0
2017-Sep-19 15:30N 52°24' E 004°53'0 0.0
2017-Sep-19 15:00N 52°24' E 004°53'0 0.0
2017-Sep-19 14:30N 52°24' E 004°53'0 0.0
2017-Sep-19 14:00N 52°24' E 004°53'0 0.0
2017-Sep-19 13:30N 52°24' E 004°53'0 0.0
2017-Sep-19 13:00N 52°24' E 004°53'0 0.0
2017-Sep-19 12:30N 52°24' E 004°53'0 0.0
2017-Sep-19 12:00N 52°24' E 004°53'0 0.0
2017-Sep-19 11:30N 52°24' E 004°53'0 0.0
2017-Sep-19 11:00N 52°24' E 004°53'0 0.0
2017-Sep-19 10:27N 52°24' E 004°53'0 0.0
2017-Sep-19 10:00N 52°24' E 004°53'0 0.0
2017-Sep-19 09:30N 52°24' E 004°53'0 0.0
2017-Sep-19 09:00N 52°24' E 004°53'0 0.0
2017-Sep-19 08:30N 52°24' E 004°53'0 0.0
2017-Sep-19 08:00N 52°24' E 004°53'0 0.0
2017-Sep-19 07:30N 52°24' E 004°53'0 0.0
2017-Sep-19 07:00N 52°24' E 004°53'0 0.0
2017-Sep-19 06:30N 52°24' E 004°53'0 0.0
2017-Sep-19 06:00N 52°24' E 004°53'0 0.0
2017-Sep-19 05:30N 52°24' E 004°53'0 0.0
2017-Sep-19 05:00N 52°24' E 004°53'0 0.0
2017-Sep-19 04:30N 52°24' E 004°53'0 0.0
2017-Sep-19 04:00N 52°24' E 004°53'0 0.0
2017-Sep-19 03:30N 52°24' E 004°53'0 0.0
2017-Sep-19 03:00N 52°24' E 004°53'0 0.0
2017-Sep-19 02:30N 52°24' E 004°53'0 0.0
2017-Sep-19 02:00N 52°24' E 004°53'0 0.0
2017-Sep-19 01:30N 52°24' E 004°53'0 0.0
2017-Sep-19 01:00N 52°24' E 004°53'0 0.0
2017-Sep-19 00:30N 52°24' E 004°53'0 0.0
2017-Sep-19 00:00N 52°24' E 004°53'0 0.0
2017-Sep-18 23:30N 52°24' E 004°53'0 0.0
2017-Sep-18 23:00N 52°24' E 004°53'0 0.0
2017-Sep-18 22:30N 52°24' E 004°53'0 0.0
2017-Sep-18 22:00N 52°24' E 004°53'0 0.0
2017-Sep-18 21:30N 52°24' E 004°53'0 0.0
2017-Sep-18 21:00N 52°24' E 004°53'0 0.0
2017-Sep-18 20:30N 52°24' E 004°53'0 0.0
2017-Sep-18 20:00N 52°24' E 004°53'0 0.0
2017-Sep-18 19:30N 52°24' E 004°53'0 0.0
2017-Sep-18 19:00N 52°24' E 004°53'0 0.0
2017-Sep-18 18:30N 52°24' E 004°53'0 0.0
2017-Sep-18 18:00N 52°24' E 004°53'0 0.0
2017-Sep-18 17:30N 52°24' E 004°53'0 0.0
2017-Sep-18 17:00N 52°24' E 004°53'0 0.0
2017-Sep-18 16:30N 52°24' E 004°53'0 0.0
2017-Sep-18 16:00N 52°24' E 004°53'0 0.0
2017-Sep-18 15:27N 52°24' E 004°53'0 0.0
2017-Sep-18 15:00N 52°24' E 004°53'0 0.0
2017-Sep-18 14:30N 52°24' E 004°53'0 0.0
2017-Sep-18 14:00N 52°24' E 004°53'0 0.0
2017-Sep-18 13:30N 52°24' E 004°53'0 0.0
2017-Sep-18 13:00N 52°24' E 004°53'0 0.0
2017-Sep-18 12:30N 52°24' E 004°53'0 0.0
2017-Sep-18 12:00N 52°24' E 004°53'0 0.0
2017-Sep-18 11:30N 52°24' E 004°53'0 0.0
2017-Sep-18 11:00N 52°24' E 004°53'0 0.0
2017-Sep-18 10:30N 52°24' E 004°53'0 0.1
2017-Sep-18 10:01N 52°24' E 004°53'1 2.6
2017-Sep-18 09:31N 52°23' E 004°54'2 3.8
2017-Sep-18 09:00N 52°24' E 004°53'2 4.3
2017-Sep-18 08:31N 52°25' E 004°49'2 4.2
2017-Sep-18 08:01N 52°26' E 004°46'2 4.2
2017-Sep-18 07:31N 52°26' E 004°43'2 4.2
2017-Sep-18 07:00N 52°27' E 004°40'3 5.4
2017-Sep-18 06:30N 52°28' E 004°36'1 1.4
2017-Sep-18 06:00N 52°28' E 004°35'3 6.7
2017-Sep-18 05:31N 52°28' E 004°29'3 6.9
2017-Sep-18 05:01N 52°29' E 004°24'3 6.6
2017-Sep-18 04:30N 52°28' E 004°18'3 6.0
2017-Sep-18 04:00N 52°29' E 004°13'3 5.8
2017-Sep-18 03:30N 52°29' E 004°08'3 6.2
2017-Sep-18 03:00N 52°28' E 004°03'3 6.1
2017-Sep-18 02:30N 52°27' E 003°58'3 6.2
2017-Sep-18 02:00N 52°26' E 003°54'3 6.1
2017-Sep-18 01:29N 52°26' E 003°48'3 6.2
2017-Sep-18 01:00N 52°26' E 003°44'68 5.8
2017-Sep-17 13:23N 51°45' E 002°16'3 8.1
2017-Sep-17 13:01N 51°43' E 002°13'4 8.1
2017-Sep-17 12:30N 51°40' E 002°08'4 8.4
2017-Sep-17 12:01N 51°37' E 002°04'4 8.9
2017-Sep-17 11:31N 51°33' E 001°59'4 8.8
2017-Sep-17 11:00N 51°30' E 001°54'4 8.6
2017-Sep-17 10:31N 51°27' E 001°50'4 8.1
2017-Sep-17 10:01N 51°24' E 001°45'4 7.7
2017-Sep-17 09:31N 51°22' E 001°40'4 7.6
2017-Sep-17 09:01N 51°21' E 001°34'4 7.3
2017-Sep-17 08:30N 51°20' E 001°29'2 4.2
2017-Sep-17 07:59N 51°20' E 001°25'0 0.0
2017-Sep-17 07:29N 51°20' E 001°25'0 0.0
2017-Sep-17 06:59N 51°20' E 001°25'0 0.0
2017-Sep-17 06:29N 51°20' E 001°25'0 0.0
2017-Sep-17 05:59N 51°20' E 001°25'0 0.0
2017-Sep-17 05:26N 51°20' E 001°25'0 0.0
2017-Sep-17 04:59N 51°20' E 001°25'0 0.0
2017-Sep-17 04:29N 51°20' E 001°25'0 0.0
2017-Sep-17 03:59N 51°20' E 001°25'0 0.0
2017-Sep-17 03:29N 51°20' E 001°25'0 0.0
2017-Sep-17 02:59N 51°20' E 001°25'0 0.0
2017-Sep-17 02:29N 51°20' E 001°25'0 0.0
2017-Sep-17 01:59N 51°20' E 001°25'0 0.0
2017-Sep-17 01:29N 51°20' E 001°25'0 0.0
2017-Sep-17 00:59N 51°20' E 001°25'0 0.0
2017-Sep-17 00:29N 51°20' E 001°25'0 0.0
2017-Sep-16 23:59N 51°20' E 001°25'0 0.0
2017-Sep-16 23:29N 51°20' E 001°25'0 0.0
2017-Sep-16 22:59N 51°20' E 001°25'0 0.0
2017-Sep-16 22:29N 51°20' E 001°25'0 0.0
2017-Sep-16 21:59N 51°20' E 001°25'0 0.0
2017-Sep-16 21:29N 51°20' E 001°25'0 0.0
2017-Sep-16 20:59N 51°20' E 001°25'0 0.0
2017-Sep-16 20:29N 51°20' E 001°25'0 0.0
2017-Sep-16 19:59N 51°20' E 001°25'0 0.0
2017-Sep-16 19:29N 51°20' E 001°25'0 0.0
2017-Sep-16 18:59N 51°20' E 001°25'0 0.0
2017-Sep-16 18:29N 51°20' E 001°25'0 0.0
2017-Sep-16 17:59N 51°20' E 001°25'0 0.0
2017-Sep-16 17:29N 51°20' E 001°25'0 0.0
2017-Sep-16 16:59N 51°20' E 001°25'0 0.0
2017-Sep-16 16:29N 51°20' E 001°25'0 0.0
2017-Sep-16 15:59N 51°20' E 001°25'0 0.0
2017-Sep-16 15:29N 51°20' E 001°25'0 0.0
2017-Sep-16 14:59N 51°20' E 001°25'0 0.0
2017-Sep-16 14:29N 51°20' E 001°25'0 0.0
2017-Sep-16 13:59N 51°20' E 001°25'0 0.0
2017-Sep-16 13:29N 51°20' E 001°25'0 0.0
2017-Sep-16 12:59N 51°20' E 001°25'0 0.0
2017-Sep-16 12:29N 51°20' E 001°25'0 0.0
2017-Sep-16 11:59N 51°20' E 001°25'0 0.0
2017-Sep-16 11:29N 51°20' E 001°25'0 0.0
2017-Sep-16 10:59N 51°20' E 001°25'0 0.0
2017-Sep-16 10:29N 51°20' E 001°25'0 0.0
2017-Sep-16 09:59N 51°20' E 001°25'0 0.0
2017-Sep-16 09:29N 51°20' E 001°25'0 0.0
2017-Sep-16 08:59N 51°20' E 001°25'0 0.0
2017-Sep-16 08:29N 51°20' E 001°25'0 0.0
2017-Sep-16 07:59N 51°20' E 001°25'0 0.0
2017-Sep-16 07:29N 51°20' E 001°25'0 0.0
2017-Sep-16 06:59N 51°20' E 001°25'0 0.0
2017-Sep-16 06:29N 51°20' E 001°25'0 0.0
2017-Sep-16 05:59N 51°20' E 001°25'0 0.0
2017-Sep-16 05:29N 51°20' E 001°25'0 0.0
2017-Sep-16 04:59N 51°20' E 001°25'0 0.0
2017-Sep-16 04:29N 51°20' E 001°25'0 0.0
2017-Sep-16 03:59N 51°20' E 001°25'0 0.0
2017-Sep-16 03:29N 51°20' E 001°25'0 0.0
2017-Sep-16 02:59N 51°20' E 001°25'0 0.0
2017-Sep-16 02:29N 51°20' E 001°25'0 0.0
2017-Sep-16 01:59N 51°20' E 001°25'0 0.0
2017-Sep-16 01:29N 51°20' E 001°25'0 0.0
2017-Sep-16 00:59N 51°20' E 001°25'0 0.0
2017-Sep-16 00:29N 51°20' E 001°25'0 0.0
2017-Sep-15 23:59N 51°20' E 001°25'0 0.0
2017-Sep-15 23:29N 51°20' E 001°25'0 0.0
2017-Sep-15 22:59N 51°20' E 001°25'0 0.0
2017-Sep-15 22:29N 51°20' E 001°25'0 0.0
2017-Sep-15 21:59N 51°20' E 001°25'0 0.0
2017-Sep-15 21:29N 51°20' E 001°25'0 0.0
2017-Sep-15 20:59N 51°20' E 001°25'0 0.0
2017-Sep-15 20:29N 51°20' E 001°25'0 0.0
2017-Sep-15 19:59N 51°20' E 001°25'0 0.0
2017-Sep-15 19:29N 51°20' E 001°25'0 0.0
2017-Sep-15 18:59N 51°20' E 001°25'0 0.0
2017-Sep-15 18:29N 51°20' E 001°25'0 0.0
2017-Sep-15 17:59N 51°20' E 001°25'0 0.0
2017-Sep-15 17:29N 51°20' E 001°25'0 0.0
2017-Sep-15 16:59N 51°20' E 001°25'0 0.0
2017-Sep-15 16:29N 51°20' E 001°25'0 0.0
2017-Sep-15 15:59N 51°20' E 001°25'0 0.0
2017-Sep-15 15:29N 51°20' E 001°25'0 0.0
2017-Sep-15 14:59N 51°20' E 001°25'0 0.0
2017-Sep-15 14:29N 51°20' E 001°25'0 0.0
2017-Sep-15 13:59N 51°20' E 001°25'0 0.0
2017-Sep-15 13:29N 51°20' E 001°25'0 0.0
2017-Sep-15 12:59N 51°20' E 001°25'0 0.0
2017-Sep-15 12:29N 51°20' E 001°25'0 0.0
2017-Sep-15 11:59N 51°20' E 001°25'0 0.0
2017-Sep-15 11:29N 51°20' E 001°25'0 0.0
2017-Sep-15 11:00N 51°20' E 001°25'0 0.0
2017-Sep-15 10:30N 51°20' E 001°25'1 2.6
2017-Sep-15 10:00N 51°20' E 001°27'1 1.9
2017-Sep-15 09:30N 51°20' E 001°29'3 6.4
2017-Sep-15 09:00N 51°19' E 001°34'4 7.4
2017-Sep-15 08:30N 51°16' E 001°36'4 8.2
2017-Sep-15 08:00N 51°11' E 001°35'4 7.5
2017-Sep-15 07:30N 51°08' E 001°36'3 5.6
2017-Sep-15 07:00N 51°06' E 001°39'4 8.7
2017-Sep-15 06:30N 51°02' E 001°35'4 7.7
2017-Sep-15 05:58N 50°60' E 001°30'4 8.2
2017-Sep-15 05:30N 50°57' E 001°26'3 6.9
2017-Sep-15 05:00N 50°54' E 001°24'3 6.7
2017-Sep-15 04:30N 50°50' E 001°22'5 6.1
2017-Sep-15 03:39N 50°45' E 001°20'1 5.6
2017-Sep-15 03:29N 50°44' E 001°20'47 6.1
2017-Sep-14 19:49N 50°20' E 000°16'3 6.8
2017-Sep-14 19:19N 50°20' E 000°11'2 6.8
2017-Sep-14 19:00N 50°19' E 000°08'3 6.5
2017-Sep-14 18:30N 50°18' E 000°03'5 6.6
2017-Sep-14 17:42N 50°17' W 000°05'2 7.8
2017-Sep-14 17:30N 50°17' W 000°08'6 8.8
2017-Sep-14 16:46N 50°15' W 000°17'22 9.9
2017-Sep-14 14:31N 50°09' W 000°51'210.8
2017-Sep-14 14:21N 50°08' W 000°53'410.7
2017-Sep-14 14:00N 50°07' W 000°59'611.0
2017-Sep-14 13:30N 50°06' W 001°07'510.7
2017-Sep-14 13:00N 50°04' W 001°15'510.7
2017-Sep-14 12:30N 50°03' W 001°23'510.3
2017-Sep-14 12:00N 50°02' W 001°31'5 9.5
2017-Sep-14 11:31N 50°01' W 001°38'4 8.6
2017-Sep-14 11:00N 49°60' W 001°45'4 8.2
2017-Sep-14 10:30N 49°59' W 001°51'4 7.6
2017-Sep-14 10:01N 49°58' W 001°57'4 7.2
2017-Sep-14 09:30N 49°57' W 002°02'4 7.5
2017-Sep-14 09:00N 49°56' W 002°08'23 7.3
2017-Sep-14 05:53N 49°49' W 002°42'3 7.9
2017-Sep-14 05:31N 49°49' W 002°46'4 8.4
2017-Sep-14 05:01N 49°47' W 002°52'8 9.5
2017-Sep-14 04:08N 49°41' W 003°02'1 9.2
2017-Sep-14 04:01N 49°41' W 003°03'4 8.4
2017-Sep-14 03:30N 49°38' W 003°08'4 8.1
2017-Sep-14 03:01N 49°36' W 003°13'510.2
2017-Sep-14 02:29N 49°32' W 003°20'5710.0
2017-Sep-13 20:43N 48°53' W 004°24'2 8.8
2017-Sep-13 20:29N 48°51' W 004°26'5 9.8
2017-Sep-13 20:00N 48°48' W 004°30'611.1
2017-Sep-13 19:30N 48°43' W 004°36'510.8
2017-Sep-13 19:00N 48°38' W 004°39'2 4.3
2017-Sep-13 18:31N 48°37' W 004°37'2 0.1
2017-Sep-12 21:33N 48°36' W 004°34'0 0.0
2017-Sep-12 21:29N 48°36' W 004°34'0 0.0
2017-Sep-12 14:28N 48°36' W 004°34'2 3.7
2017-Sep-12 14:00N 48°37' W 004°36'3 6.1
2017-Sep-12 13:30N 48°38' W 004°40'4 7.5
2017-Sep-12 13:00N 48°41' W 004°44'1 2.3
2017-Sep-12 12:30N 48°42' W 004°44'0 0.9
2017-Sep-12 12:00N 48°42' W 004°43'2 4.6
2017-Sep-12 11:30N 48°40' W 004°41'2 4.4
2017-Sep-12 11:00N 48°38' W 004°39'3 5.9
2017-Sep-12 10:30N 48°37' W 004°35'2 3.9
2017-Sep-12 10:00N 48°36' W 004°33'  
Track history (hours):
 
Tides and Currents Weather Stations Pressure Air Temp Water Temp Dewpoint Dewpoint Depression Visibility Wind Speed Wind Dir Waves Ship Positions

Wylde Swan

Last reported at 2017-Sep-22 01:58 UTC. Time now 2017-Sep-22 15:18 UTC.
Position N 53°22' E 005°13'.

Length 45 m; draft 3.4 m.

Type: Sailing vessel. MMSI: 244074000.

Date/timePositionNaut miles runAvg speedWind from/ knotsBaromVisibWave heightAir tempDewpointWater temp
2017-Sep-22 01:58N 53°22' E 005°13'0 0.0
2017-Sep-22 01:28N 53°22' E 005°13'0 0.0
2017-Sep-22 00:58N 53°22' E 005°13'0 0.0
2017-Sep-22 00:28N 53°22' E 005°13'0 0.0
2017-Sep-21 23:58N 53°22' E 005°13'0 0.0
2017-Sep-21 23:28N 53°22' E 005°13'0 0.0
2017-Sep-21 22:58N 53°22' E 005°13'0 0.0
2017-Sep-21 22:28N 53°22' E 005°13'0 0.0
2017-Sep-21 21:58N 53°22' E 005°13'0 0.0
2017-Sep-21 21:28N 53°22' E 005°13'0 0.0
2017-Sep-21 20:58N 53°22' E 005°13'0 0.0
2017-Sep-21 20:28N 53°22' E 005°13'0 0.0
2017-Sep-21 19:58N 53°22' E 005°13'0 0.0
2017-Sep-21 19:28N 53°22' E 005°13'0 0.0
2017-Sep-21 18:58N 53°22' E 005°13'0 0.0
2017-Sep-21 18:28N 53°22' E 005°13'0 0.0
2017-Sep-21 17:58N 53°22' E 005°13'0 0.0
2017-Sep-21 17:28N 53°22' E 005°13'0 0.0
2017-Sep-21 16:58N 53°22' E 005°13'0 0.0
2017-Sep-21 16:30N 53°22' E 005°13'0 0.0
2017-Sep-21 16:00N 53°22' E 005°13'0 0.0
2017-Sep-21 15:30N 53°22' E 005°13'0 0.0
2017-Sep-21 15:00N 53°22' E 005°13'0 0.0
2017-Sep-21 14:30N 53°22' E 005°13'0 0.0
2017-Sep-21 14:00N 53°22' E 005°13'0 0.0
2017-Sep-21 13:30N 53°22' E 005°13'0 0.0
2017-Sep-21 13:00N 53°22' E 005°13'0 0.0
2017-Sep-21 12:30N 53°22' E 005°13'1 1.6
2017-Sep-21 12:00N 53°21' E 005°13'3 5.4
2017-Sep-21 11:30N 53°19' E 005°15'3 6.1
2017-Sep-21 11:00N 53°17' E 005°11'3 6.8
2017-Sep-21 10:30N 53°14' E 005°13'4 7.4
2017-Sep-21 10:00N 53°12' E 005°18'4 7.7
2017-Sep-21 09:30N 53°11' E 005°24'3 6.1
2017-Sep-21 09:00N 53°08' E 005°23'3 5.7
2017-Sep-21 08:31N 53°05' E 005°21'1 2.0
2017-Sep-21 08:00N 53°04' E 005°20'0 0.4
2017-Sep-21 07:30N 53°04' E 005°20'2 3.3
2017-Sep-21 07:00N 53°03' E 005°23'1 1.6
2017-Sep-21 06:30N 53°03' E 005°24'0 0.0
2017-Sep-21 06:00N 53°03' E 005°24'0 0.0
2017-Sep-21 05:30N 53°03' E 005°24'0 0.0
2017-Sep-21 05:00N 53°03' E 005°24'0 0.0
2017-Sep-21 04:30N 53°03' E 005°24'0 0.0
2017-Sep-21 04:00N 53°03' E 005°24'0 0.0
2017-Sep-21 03:30N 53°03' E 005°24'0 0.0
2017-Sep-21 03:00N 53°03' E 005°24'0 0.0
2017-Sep-21 02:30N 53°03' E 005°24'0 0.0
2017-Sep-21 02:00N 53°03' E 005°24'0 0.0
2017-Sep-21 01:30N 53°03' E 005°24'0 0.0
2017-Sep-21 01:00N 53°03' E 005°24'0 0.0
2017-Sep-21 00:30N 53°03' E 005°24'0 0.0
2017-Sep-21 00:00N 53°03' E 005°24'0 0.0
2017-Sep-20 23:30N 53°03' E 005°24'0 0.0
2017-Sep-20 23:00N 53°03' E 005°24'0 0.0
2017-Sep-20 22:30N 53°03' E 005°24'0 0.0
2017-Sep-20 22:00N 53°03' E 005°24'0 0.0
2017-Sep-20 21:30N 53°03' E 005°24'0 0.0
2017-Sep-20 21:00N 53°03' E 005°24'0 0.0
2017-Sep-20 20:30N 53°03' E 005°24'0 0.0
2017-Sep-20 20:00N 53°03' E 005°24'0 0.0
2017-Sep-20 19:30N 53°03' E 005°24'0 0.0
2017-Sep-20 19:00N 53°03' E 005°24'0 0.0
2017-Sep-20 18:30N 53°03' E 005°24'0 0.0
2017-Sep-20 18:00N 53°03' E 005°24'0 0.0
2017-Sep-20 17:30N 53°03' E 005°24'0 0.0
2017-Sep-20 17:00N 53°03' E 005°24'1 1.8
2017-Sep-20 16:30N 53°03' E 005°23'2 3.1
2017-Sep-20 16:00N 53°02' E 005°21'3 6.7
2017-Sep-20 15:30N 52°59' E 005°19'4 7.8
2017-Sep-20 15:00N 52°55' E 005°20'8 8.3
2017-Sep-20 14:00N 52°47' E 005°19'4 8.5
2017-Sep-20 13:30N 52°44' E 005°24'4 8.6
2017-Sep-20 13:00N 52°41' E 005°30'4 7.4
2017-Sep-20 12:30N 52°38' E 005°32'4 7.8
2017-Sep-20 12:00N 52°35' E 005°29'4 7.4
2017-Sep-20 11:30N 52°32' E 005°26'0 0.7
2017-Sep-20 11:00N 52°31' E 005°26'0 0.0
2017-Sep-20 10:30N 52°31' E 005°26'0 0.0
2017-Sep-20 10:00N 52°31' E 005°26'0 0.0
2017-Sep-20 09:30N 52°31' E 005°26'0 0.0
2017-Sep-20 09:00N 52°31' E 005°26'0 0.0
2017-Sep-20 08:30N 52°31' E 005°26'1 2.9
2017-Sep-20 08:00N 52°30' E 005°24'2 4.7
2017-Sep-20 07:30N 52°30' E 005°20'3 6.9
2017-Sep-20 07:00N 52°28' E 005°16'3 6.4
2017-Sep-20 06:30N 52°26' E 005°11'3 6.5
2017-Sep-20 06:00N 52°24' E 005°07'3 6.9
2017-Sep-20 05:30N 52°23' E 005°02'3 5.5
2017-Sep-20 05:01N 52°23' E 004°58'0 0.8
2017-Sep-20 04:31N 52°23' E 004°57'2 4.8
2017-Sep-20 04:00N 52°24' E 004°53'0 0.3
2017-Sep-20 03:30N 52°24' E 004°53'0 0.0
2017-Sep-20 03:00N 52°24' E 004°53'0 0.0
2017-Sep-20 02:30N 52°24' E 004°53'0 0.0
2017-Sep-20 02:00N 52°24' E 004°53'0 0.0
2017-Sep-20 01:30N 52°24' E 004°53'0 0.0
2017-Sep-20 01:00N 52°24' E 004°53'0 0.0
2017-Sep-20 00:30N 52°24' E 004°53'0 0.0
2017-Sep-20 00:00N 52°24' E 004°53'0 0.0
2017-Sep-19 23:30N 52°24' E 004°53'0 0.0
2017-Sep-19 23:00N 52°24' E 004°53'0 0.0
2017-Sep-19 22:30N 52°24' E 004°53'0 0.0
2017-Sep-19 22:00N 52°24' E 004°53'0 0.0
2017-Sep-19 21:30N 52°24' E 004°53'0 0.0
2017-Sep-19 21:00N 52°24' E 004°53'0 0.0
2017-Sep-19 20:30N 52°24' E 004°53'0 0.0
2017-Sep-19 20:00N 52°24' E 004°53'0 0.0
2017-Sep-19 19:30N 52°24' E 004°53'0 0.0
2017-Sep-19 19:00N 52°24' E 004°53'0 0.0
2017-Sep-19 18:30N 52°24' E 004°53'0 0.0
2017-Sep-19 18:00N 52°24' E 004°53'0 0.0
2017-Sep-19 17:30N 52°24' E 004°53'0 0.0
2017-Sep-19 17:00N 52°24' E 004°53'0 0.0
2017-Sep-19 16:30N 52°24' E 004°53'0 0.0
2017-Sep-19 16:00N 52°24' E 004°53'0 0.0
2017-Sep-19 15:30N 52°24' E 004°53'0 0.0
2017-Sep-19 15:00N 52°24' E 004°53'0 0.0
2017-Sep-19 14:30N 52°24' E 004°53'0 0.0
2017-Sep-19 14:00N 52°24' E 004°53'0 0.0
2017-Sep-19 13:30N 52°24' E 004°53'0 0.0
2017-Sep-19 13:00N 52°24' E 004°53'0 0.0
2017-Sep-19 12:30N 52°24' E 004°53'0 0.0
2017-Sep-19 12:00N 52°24' E 004°53'0 0.0
2017-Sep-19 11:30N 52°24' E 004°53'0 0.0
2017-Sep-19 11:00N 52°24' E 004°53'0 0.0
2017-Sep-19 10:27N 52°24' E 004°53'0 0.0
2017-Sep-19 10:00N 52°24' E 004°53'0 0.0
2017-Sep-19 09:30N 52°24' E 004°53'0 0.0
2017-Sep-19 09:00N 52°24' E 004°53'0 0.0
2017-Sep-19 08:30N 52°24' E 004°53'0 0.0
2017-Sep-19 08:00N 52°24' E 004°53'0 0.0
2017-Sep-19 07:30N 52°24' E 004°53'0 0.0
2017-Sep-19 07:00N 52°24' E 004°53'0 0.0
2017-Sep-19 06:30N 52°24' E 004°53'0 0.0
2017-Sep-19 06:00N 52°24' E 004°53'0 0.0
2017-Sep-19 05:30N 52°24' E 004°53'0 0.0
2017-Sep-19 05:00N 52°24' E 004°53'0 0.0
2017-Sep-19 04:30N 52°24' E 004°53'0 0.0
2017-Sep-19 04:00N 52°24' E 004°53'0 0.0
2017-Sep-19 03:30N 52°24' E 004°53'0 0.0
2017-Sep-19 03:00N 52°24' E 004°53'0 0.0
2017-Sep-19 02:30N 52°24' E 004°53'0 0.0
2017-Sep-19 02:00N 52°24' E 004°53'0 0.0
2017-Sep-19 01:30N 52°24' E 004°53'0 0.0
2017-Sep-19 01:00N 52°24' E 004°53'0 0.0
2017-Sep-19 00:30N 52°24' E 004°53'0 0.0
2017-Sep-19 00:00N 52°24' E 004°53'0 0.0
2017-Sep-18 23:30N 52°24' E 004°53'0 0.0
2017-Sep-18 23:00N 52°24' E 004°53'0 0.0
2017-Sep-18 22:30N 52°24' E 004°53'0 0.0
2017-Sep-18 22:00N 52°24' E 004°53'0 0.0
2017-Sep-18 21:30N 52°24' E 004°53'0 0.0
2017-Sep-18 21:00N 52°24' E 004°53'0 0.0
2017-Sep-18 20:30N 52°24' E 004°53'0 0.0
2017-Sep-18 20:00N 52°24' E 004°53'0 0.0
2017-Sep-18 19:30N 52°24' E 004°53'0 0.0
2017-Sep-18 19:00N 52°24' E 004°53'0 0.0
2017-Sep-18 18:30N 52°24' E 004°53'0 0.0
2017-Sep-18 18:00N 52°24' E 004°53'0 0.0
2017-Sep-18 17:30N 52°24' E 004°53'0 0.0
2017-Sep-18 17:00N 52°24' E 004°53'0 0.0
2017-Sep-18 16:30N 52°24' E 004°53'0 0.0
2017-Sep-18 16:00N 52°24' E 004°53'0 0.0
2017-Sep-18 15:27N 52°24' E 004°53'0 0.0
2017-Sep-18 15:00N 52°24' E 004°53'0 0.0
2017-Sep-18 14:30N 52°24' E 004°53'0 0.0
2017-Sep-18 14:00N 52°24' E 004°53'0 0.0
2017-Sep-18 13:30N 52°24' E 004°53'0 0.0
2017-Sep-18 13:00N 52°24' E 004°53'0 0.0
2017-Sep-18 12:30N 52°24' E 004°53'0 0.0
2017-Sep-18 12:00N 52°24' E 004°53'0 0.0
2017-Sep-18 11:30N 52°24' E 004°53'0 0.0
2017-Sep-18 11:00N 52°24' E 004°53'0 0.0
2017-Sep-18 10:30N 52°24' E 004°53'0 0.1
2017-Sep-18 10:01N 52°24' E 004°53'1 2.6
2017-Sep-18 09:31N 52°23' E 004°54'2 3.8
2017-Sep-18 09:00N 52°24' E 004°53'2 4.3
2017-Sep-18 08:31N 52°25' E 004°49'2 4.2
2017-Sep-18 08:01N 52°26' E 004°46'2 4.2
2017-Sep-18 07:31N 52°26' E 004°43'2 4.2
2017-Sep-18 07:00N 52°27' E 004°40'3 5.4
2017-Sep-18 06:30N 52°28' E 004°36'1 1.4
2017-Sep-18 06:00N 52°28' E 004°35'3 6.7
2017-Sep-18 05:31N 52°28' E 004°29'3 6.9
2017-Sep-18 05:01N 52°29' E 004°24'3 6.6
2017-Sep-18 04:30N 52°28' E 004°18'3 6.0
2017-Sep-18 04:00N 52°29' E 004°13'3 5.8
2017-Sep-18 03:30N 52°29' E 004°08'3 6.2
2017-Sep-18 03:00N 52°28' E 004°03'3 6.1
2017-Sep-18 02:30N 52°27' E 003°58'3 6.2
2017-Sep-18 02:00N 52°26' E 003°54'3 6.1
2017-Sep-18 01:29N 52°26' E 003°48'3 6.2
2017-Sep-18 01:00N 52°26' E 003°44'68 5.8
2017-Sep-17 13:23N 51°45' E 002°16'3 8.1
2017-Sep-17 13:01N 51°43' E 002°13'4 8.1
2017-Sep-17 12:30N 51°40' E 002°08'4 8.4
2017-Sep-17 12:01N 51°37' E 002°04'4 8.9
2017-Sep-17 11:31N 51°33' E 001°59'4 8.8
2017-Sep-17 11:00N 51°30' E 001°54'4 8.6
2017-Sep-17 10:31N 51°27' E 001°50'4 8.1
2017-Sep-17 10:01N 51°24' E 001°45'4 7.7
2017-Sep-17 09:31N 51°22' E 001°40'4 7.6
2017-Sep-17 09:01N 51°21' E 001°34'4 7.3
2017-Sep-17 08:30N 51°20' E 001°29'2 4.2
2017-Sep-17 07:59N 51°20' E 001°25'0 0.0
2017-Sep-17 07:29N 51°20' E 001°25'0 0.0
2017-Sep-17 06:59N 51°20' E 001°25'0 0.0
2017-Sep-17 06:29N 51°20' E 001°25'0 0.0
2017-Sep-17 05:59N 51°20' E 001°25'0 0.0
2017-Sep-17 05:26N 51°20' E 001°25'0 0.0
2017-Sep-17 04:59N 51°20' E 001°25'0 0.0
2017-Sep-17 04:29N 51°20' E 001°25'0 0.0
2017-Sep-17 03:59N 51°20' E 001°25'0 0.0
2017-Sep-17 03:29N 51°20' E 001°25'0 0.0
2017-Sep-17 02:59N 51°20' E 001°25'0 0.0
2017-Sep-17 02:29N 51°20' E 001°25'0 0.0
2017-Sep-17 01:59N 51°20' E 001°25'0 0.0
2017-Sep-17 01:29N 51°20' E 001°25'0 0.0
2017-Sep-17 00:59N 51°20' E 001°25'0 0.0
2017-Sep-17 00:29N 51°20' E 001°25'0 0.0
2017-Sep-16 23:59N 51°20' E 001°25'0 0.0
2017-Sep-16 23:29N 51°20' E 001°25'0 0.0
2017-Sep-16 22:59N 51°20' E 001°25'0 0.0
2017-Sep-16 22:29N 51°20' E 001°25'0 0.0
2017-Sep-16 21:59N 51°20' E 001°25'0 0.0
2017-Sep-16 21:29N 51°20' E 001°25'0 0.0
2017-Sep-16 20:59N 51°20' E 001°25'0 0.0
2017-Sep-16 20:29N 51°20' E 001°25'0 0.0
2017-Sep-16 19:59N 51°20' E 001°25'0 0.0
2017-Sep-16 19:29N 51°20' E 001°25'0 0.0
2017-Sep-16 18:59N 51°20' E 001°25'0 0.0
2017-Sep-16 18:29N 51°20' E 001°25'0 0.0
2017-Sep-16 17:59N 51°20' E 001°25'0 0.0
2017-Sep-16 17:29N 51°20' E 001°25'0 0.0
2017-Sep-16 16:59N 51°20' E 001°25'0 0.0
2017-Sep-16 16:29N 51°20' E 001°25'0 0.0
2017-Sep-16 15:59N 51°20' E 001°25'0 0.0
2017-Sep-16 15:29N 51°20' E 001°25'0 0.0
2017-Sep-16 14:59N 51°20' E 001°25'0 0.0
2017-Sep-16 14:29N 51°20' E 001°25'0 0.0
2017-Sep-16 13:59N 51°20' E 001°25'0 0.0
2017-Sep-16 13:29N 51°20' E 001°25'0 0.0
2017-Sep-16 12:59N 51°20' E 001°25'0 0.0
2017-Sep-16 12:29N 51°20' E 001°25'0 0.0
2017-Sep-16 11:59N 51°20' E 001°25'0 0.0
2017-Sep-16 11:29N 51°20' E 001°25'0 0.0
2017-Sep-16 10:59N 51°20' E 001°25'0 0.0
2017-Sep-16 10:29N 51°20' E 001°25'0 0.0
2017-Sep-16 09:59N 51°20' E 001°25'0 0.0
2017-Sep-16 09:29N 51°20' E 001°25'0 0.0
2017-Sep-16 08:59N 51°20' E 001°25'0 0.0
2017-Sep-16 08:29N 51°20' E 001°25'0 0.0
2017-Sep-16 07:59N 51°20' E 001°25'0 0.0
2017-Sep-16 07:29N 51°20' E 001°25'0 0.0
2017-Sep-16 06:59N 51°20' E 001°25'0 0.0
2017-Sep-16 06:29N 51°20' E 001°25'0 0.0
2017-Sep-16 05:59N 51°20' E 001°25'0 0.0
2017-Sep-16 05:29N 51°20' E 001°25'0 0.0
2017-Sep-16 04:59N 51°20' E 001°25'0 0.0
2017-Sep-16 04:29N 51°20' E 001°25'0 0.0
2017-Sep-16 03:59N 51°20' E 001°25'0 0.0
2017-Sep-16 03:29N 51°20' E 001°25'0 0.0
2017-Sep-16 02:59N 51°20' E 001°25'0 0.0
2017-Sep-16 02:29N 51°20' E 001°25'0 0.0
2017-Sep-16 01:59N 51°20' E 001°25'0 0.0
2017-Sep-16 01:29N 51°20' E 001°25'0 0.0
2017-Sep-16 00:59N 51°20' E 001°25'0 0.0
2017-Sep-16 00:29N 51°20' E 001°25'0 0.0
2017-Sep-15 23:59N 51°20' E 001°25'0 0.0
2017-Sep-15 23:29N 51°20' E 001°25'0 0.0
2017-Sep-15 22:59N 51°20' E 001°25'0 0.0
2017-Sep-15 22:29N 51°20' E 001°25'0 0.0
2017-Sep-15 21:59N 51°20' E 001°25'0 0.0
2017-Sep-15 21:29N 51°20' E 001°25'0 0.0
2017-Sep-15 20:59N 51°20' E 001°25'0 0.0
2017-Sep-15 20:29N 51°20' E 001°25'0 0.0
2017-Sep-15 19:59N 51°20' E 001°25'0 0.0
2017-Sep-15 19:29N 51°20' E 001°25'0 0.0
2017-Sep-15 18:59N 51°20' E 001°25'0 0.0
2017-Sep-15 18:29N 51°20' E 001°25'0 0.0
2017-Sep-15 17:59N 51°20' E 001°25'0 0.0
2017-Sep-15 17:29N 51°20' E 001°25'0 0.0
2017-Sep-15 16:59N 51°20' E 001°25'0 0.0
2017-Sep-15 16:29N 51°20' E 001°25'0 0.0
2017-Sep-15 15:59N 51°20' E 001°25'0 0.0
2017-Sep-15 15:29N 51°20' E 001°25'0 0.0
2017-Sep-15 14:59N 51°20' E 001°25'0 0.0
2017-Sep-15 14:29N 51°20' E 001°25'0 0.0
2017-Sep-15 13:59N 51°20' E 001°25'0 0.0
2017-Sep-15 13:29N 51°20' E 001°25'0 0.0
2017-Sep-15 12:59N 51°20' E 001°25'0 0.0
2017-Sep-15 12:29N 51°20' E 001°25'0 0.0
2017-Sep-15 11:59N 51°20' E 001°25'0 0.0
2017-Sep-15 11:29N 51°20' E 001°25'0 0.0
2017-Sep-15 11:00N 51°20' E 001°25'0 0.0
2017-Sep-15 10:30N 51°20' E 001°25'1 2.6
2017-Sep-15 10:00N 51°20' E 001°27'1 1.9
2017-Sep-15 09:30N 51°20' E 001°29'3 6.4
2017-Sep-15 09:00N 51°19' E 001°34'4 7.4
2017-Sep-15 08:30N 51°16' E 001°36'4 8.2
2017-Sep-15 08:00N 51°11' E 001°35'4 7.5
2017-Sep-15 07:30N 51°08' E 001°36'3 5.6
2017-Sep-15 07:00N 51°06' E 001°39'4 8.7
2017-Sep-15 06:30N 51°02' E 001°35'4 7.7
2017-Sep-15 05:58N 50°60' E 001°30'4 8.2
2017-Sep-15 05:30N 50°57' E 001°26'3 6.9
2017-Sep-15 05:00N 50°54' E 001°24'3 6.7
2017-Sep-15 04:30N 50°50' E 001°22'5 6.1
2017-Sep-15 03:39N 50°45' E 001°20'1 5.6
2017-Sep-15 03:29N 50°44' E 001°20'47 6.1
2017-Sep-14 19:49N 50°20' E 000°16'3 6.8
2017-Sep-14 19:19N 50°20' E 000°11'2 6.8
2017-Sep-14 19:00N 50°19' E 000°08'3 6.5
2017-Sep-14 18:30N 50°18' E 000°03'5 6.6
2017-Sep-14 17:42N 50°17' W 000°05'2 7.8
2017-Sep-14 17:30N 50°17' W 000°08'6 8.8
2017-Sep-14 16:46N 50°15' W 000°17'22 9.9
2017-Sep-14 14:31N 50°09' W 000°51'210.8
2017-Sep-14 14:21N 50°08' W 000°53'410.7
2017-Sep-14 14:00N 50°07' W 000°59'611.0
2017-Sep-14 13:30N 50°06' W 001°07'510.7
2017-Sep-14 13:00N 50°04' W 001°15'510.7
2017-Sep-14 12:30N 50°03' W 001°23'510.3
2017-Sep-14 12:00N 50°02' W 001°31'5 9.5
2017-Sep-14 11:31N 50°01' W 001°38'4 8.6
2017-Sep-14 11:00N 49°60' W 001°45'4 8.2
2017-Sep-14 10:30N 49°59' W 001°51'4 7.6
2017-Sep-14 10:01N 49°58' W 001°57'4 7.2
2017-Sep-14 09:30N 49°57' W 002°02'4 7.5
2017-Sep-14 09:00N 49°56' W 002°08'23 7.3
2017-Sep-14 05:53N 49°49' W 002°42'3 7.9
2017-Sep-14 05:31N 49°49' W 002°46'4 8.4
2017-Sep-14 05:01N 49°47' W 002°52'8 9.5
2017-Sep-14 04:08N 49°41' W 003°02'1 9.2
2017-Sep-14 04:01N 49°41' W 003°03'4 8.4
2017-Sep-14 03:30N 49°38' W 003°08'4 8.1
2017-Sep-14 03:01N 49°36' W 003°13'510.2
2017-Sep-14 02:29N 49°32' W 003°20'5710.0
2017-Sep-13 20:43N 48°53' W 004°24'2 8.8
2017-Sep-13 20:29N 48°51' W 004°26'5 9.8
2017-Sep-13 20:00N 48°48' W 004°30'611.1
2017-Sep-13 19:30N 48°43' W 004°36'510.8
2017-Sep-13 19:00N 48°38' W 004°39'2 4.3
2017-Sep-13 18:31N 48°37' W 004°37'2 0.1
2017-Sep-12 21:33N 48°36' W 004°34'0 0.0
2017-Sep-12 21:29N 48°36' W 004°34'0 0.0
2017-Sep-12 14:28N 48°36' W 004°34'2 3.7
2017-Sep-12 14:00N 48°37' W 004°36'3 6.1
2017-Sep-12 13:30N 48°38' W 004°40'4 7.5
2017-Sep-12 13:00N 48°41' W 004°44'1 2.3
2017-Sep-12 12:30N 48°42' W 004°44'0 0.9
2017-Sep-12 12:00N 48°42' W 004°43'2 4.6
2017-Sep-12 11:30N 48°40' W 004°41'2 4.4
2017-Sep-12 11:00N 48°38' W 004°39'3 5.9
2017-Sep-12 10:30N 48°37' W 004°35'2 3.9
2017-Sep-12 10:00N 48°36' W 004°33'  

Dump ship's entire track history